NC57 weather

Craven Regional Medical Center Heliport
New Bern, North Carolina, United States

Public forecast

Using degrees Fahrenheit for public forecast. Weather courtesy of forecast.io.

METAR (pilot weather report)

Closest report is Coastal Carolina Regional Airport, 2.7 nm (5.1 km) SSE. Retrieved 2019/04/19 17:54 UTC (14 minutes ago):

KEWN 191754Z 18017G34KT 10SM BKN025 OVC035 26/21 A2980 RMK AO2 PK WND 18034/1745 SLP089 60002 T02560206 10256 20228 58026

TAF (pilot weather forecast)

Closest forecast is Coastal Carolina Regional Airport, 2.7 nm (5.1 km) SSE. Retrieved 2019/04/19 18:39 UTC (0 seconds ago):

TAF KEWN 191736Z 1918/2018 18018G32KT P6SM VCSH SCT025 BKN035 TEMPO 1918/1920 BKN020 FM200000 17015G30KT P6SM VCTS SCT020 OVC050CB TEMPO 2002/2004 VRB45KT 2SM TSRA BKN020CB FM200600 21010G20KT P6SM BKN040 FM201000 22009KT P6SM SCT200 FM201300 21010G17KT P6SM SCT250